createdAt,value
2018-05-31T00:00:05.532Z,22.6
2018-05-31T00:00:55.264Z,22.6
2018-05-31T00:01:45.368Z,22.6
2018-05-31T00:02:35.143Z,22.6
2018-05-31T00:03:25.791Z,22.6
2018-05-31T00:04:15.549Z,22.6
2018-05-31T00:05:05.968Z,22.6
2018-05-31T00:05:56.051Z,22.6
2018-05-31T00:06:46.200Z,22.6
2018-05-31T00:07:36.100Z,22.6
2018-05-31T00:08:25.920Z,22.6
2018-05-31T00:09:15.957Z,22.6
2018-05-31T00:10:06.885Z,22.6
2018-05-31T00:10:55.775Z,22.6
2018-05-31T00:11:46.136Z,22.6
2018-05-31T00:12:36.511Z,22.6
2018-05-31T00:13:28.077Z,22.6
2018-05-31T00:14:16.348Z,22.6
2018-05-31T00:15:06.668Z,22.6
2018-05-31T00:15:56.155Z,22.6
2018-05-31T00:16:49.269Z,22.6
2018-05-31T00:17:35.702Z,22.6
2018-05-31T00:18:26.629Z,22.6
2018-05-31T00:19:16.403Z,22.6
2018-05-31T00:20:07.847Z,22.6
2018-05-31T00:20:57.144Z,22.6
2018-05-31T00:21:47.224Z,22.6
2018-05-31T00:22:36.981Z,22.6
2018-05-31T00:23:26.704Z,22.6
2018-05-31T00:24:16.827Z,22.6
2018-05-31T00:25:07.356Z,22.6
2018-05-31T00:25:57.514Z,22.6
2018-05-31T00:26:47.012Z,22.6
2018-05-31T00:27:37.328Z,22.6
2018-05-31T00:28:27.684Z,22.6
2018-05-31T00:29:16.953Z,22.6
2018-05-31T00:30:07.593Z,22.6
2018-05-31T00:30:57.585Z,22.6
2018-05-31T00:31:47.670Z,22.6
2018-05-31T00:32:38.027Z,22.6
2018-05-31T00:33:28.081Z,22.6
2018-05-31T00:34:17.908Z,22.6
2018-05-31T00:35:07.614Z,22.6
2018-05-31T00:35:58.248Z,22.6
2018-05-31T00:36:48.020Z,22.6
2018-05-31T00:37:38.057Z,22.6
2018-05-31T00:38:28.168Z,22.6
2018-05-31T00:39:18.727Z,22.6
2018-05-31T00:40:08.267Z,22.6
2018-05-31T00:40:58.655Z,22.6
2018-05-31T00:41:47.839Z,22.6
2018-05-31T00:42:40.150Z,22.6
2018-05-31T00:43:28.323Z,22.6
2018-05-31T00:44:18.912Z,22.6
2018-05-31T00:45:08.975Z,22.6
2018-05-31T00:46:00.995Z,22.6
2018-05-31T00:46:49.088Z,22.6
2018-05-31T00:47:37.749Z,22.6
2018-05-31T00:48:28.981Z,22.6
2018-05-31T00:49:23.171Z,22.6
2018-05-31T00:50:08.760Z,22.6
2018-05-31T00:50:59.386Z,22.6
2018-05-31T00:51:48.580Z,22.6
2018-05-31T00:52:41.121Z,22.6
2018-05-31T00:53:29.006Z,22.6
2018-05-31T00:54:19.754Z,22.6
2018-05-31T00:55:09.169Z,22.6
2018-05-31T00:55:58.613Z,22.6
2018-05-31T00:56:49.575Z,22.6
2018-05-31T00:57:39.633Z,22.6
2018-05-31T00:58:29.397Z,22.6
2018-05-31T00:59:19.439Z,22.6
2018-05-31T01:00:10.095Z,22.6
2018-05-31T01:00:59.589Z,22.6
2018-05-31T01:01:49.943Z,22.6
2018-05-31T01:02:39.710Z,22.7
2018-05-31T01:03:30.402Z,22.6
2018-05-31T01:04:20.121Z,22.6
2018-05-31T01:05:10.488Z,22.6
2018-05-31T01:05:59.991Z,22.6
2018-05-31T01:06:50.635Z,22.6
2018-05-31T01:07:40.693Z,22.6
2018-05-31T01:08:30.509Z,22.6
2018-05-31T01:09:20.804Z,22.6
2018-05-31T01:10:10.293Z,22.6
2018-05-31T01:11:00.344Z,22.6
2018-05-31T01:11:51.987Z,22.6
2018-05-31T01:12:40.482Z,22.6
2018-05-31T01:13:30.258Z,22.7
2018-05-31T01:14:21.177Z,22.6
2018-05-31T01:15:12.869Z,22.6
2018-05-31T01:16:00.445Z,22.6
2018-05-31T01:16:51.375Z,22.6
2018-05-31T01:17:40.841Z,22.6
2018-05-31T01:18:34.167Z,22.7
2018-05-31T01:19:20.486Z,22.6
2018-05-31T01:20:10.755Z,22.6
2018-05-31T01:21:00.568Z,22.7
2018-05-31T01:21:54.166Z,22.6
2018-05-31T01:22:40.666Z,22.6
2018-05-31T01:23:31.896Z,22.6
2018-05-31T01:24:21.635Z,22.6
2018-05-31T01:25:13.025Z,22.6
2018-05-31T01:26:02.326Z,22.6
2018-05-31T01:26:51.867Z,22.6
2018-05-31T01:27:41.938Z,22.6
2018-05-31T01:28:31.402Z,22.6
2018-05-31T01:29:22.067Z,22.6
2018-05-31T01:30:12.123Z,22.6
2018-05-31T01:31:01.849Z,22.6
2018-05-31T01:31:52.490Z,22.6
2018-05-31T01:32:42.572Z,22.7
2018-05-31T01:33:32.075Z,22.6
2018-05-31T01:34:21.868Z,22.6
2018-05-31T01:35:12.820Z,22.7
2018-05-31T01:36:02.836Z,22.6
2018-05-31T01:36:52.580Z,22.6
2018-05-31T01:37:43.412Z,22.7
2018-05-31T01:38:32.729Z,22.7
2018-05-31T01:39:23.119Z,22.7
2018-05-31T01:40:12.984Z,22.7
2018-05-31T01:41:03.779Z,22.7
2018-05-31T01:41:52.726Z,22.7
2018-05-31T01:42:43.369Z,22.7
2018-05-31T01:43:32.242Z,22.7
2018-05-31T01:44:24.212Z,22.7
2018-05-31T01:45:12.927Z,22.6
2018-05-31T01:46:03.303Z,22.7
2018-05-31T01:46:53.045Z,22.7
2018-05-31T01:47:46.650Z,22.7
2018-05-31T01:48:33.789Z,22.7
2018-05-31T01:49:23.886Z,22.7
2018-05-31T01:50:13.659Z,22.7
2018-05-31T01:51:06.427Z,22.7
2018-05-31T01:51:53.787Z,22.7
2018-05-31T01:52:43.812Z,22.7
2018-05-31T01:53:33.626Z,22.7
2018-05-31T01:54:25.199Z,22.7
2018-05-31T01:55:14.030Z,22.7
2018-05-31T01:56:04.085Z,22.7
2018-05-31T01:56:54.469Z,22.7
2018-05-31T01:57:45.326Z,22.7
2018-05-31T01:58:34.625Z,22.7
2018-05-31T01:59:24.301Z,22.7
2018-05-31T02:00:14.673Z,22.7
2018-05-31T02:01:04.752Z,22.7
2018-05-31T02:01:54.223Z,22.7
2018-05-31T02:02:44.916Z,22.7
2018-05-31T02:03:34.357Z,22.7
2018-05-31T02:04:24.999Z,22.7
2018-05-31T02:05:14.769Z,22.7
2018-05-31T02:06:04.817Z,22.7
2018-05-31T02:06:54.284Z,22.7
2018-05-31T02:07:44.668Z,22.7
2018-05-31T02:08:35.314Z,22.7
2018-05-31T02:09:24.761Z,22.7
2018-05-31T02:10:16.055Z,22.7
2018-05-31T02:11:05.506Z,22.7
2018-05-31T02:11:55.549Z,22.7
2018-05-31T02:12:45.331Z,22.7
2018-05-31T02:13:36.200Z,22.7
2018-05-31T02:14:25.435Z,22.7
2018-05-31T02:15:15.590Z,22.7
2018-05-31T02:16:05.286Z,22.7
2018-05-31T02:16:57.976Z,22.7
2018-05-31T02:17:45.719Z,22.7
2018-05-31T02:18:35.508Z,22.7
2018-05-31T02:19:24.986Z,22.7
2018-05-31T02:20:19.386Z,22.7
2018-05-31T02:21:06.031Z,22.7
2018-05-31T02:21:56.035Z,22.7
2018-05-31T02:22:46.395Z,22.7
2018-05-31T02:23:37.565Z,22.7
2018-05-31T02:24:25.522Z,22.8
2018-05-31T02:25:16.550Z,22.7
2018-05-31T02:26:06.643Z,22.7
2018-05-31T02:26:57.562Z,22.7
2018-05-31T02:27:46.501Z,22.7
2018-05-31T02:28:36.519Z,22.7
2018-05-31T02:29:26.942Z,22.7
2018-05-31T02:30:16.724Z,22.7
2018-05-31T02:31:07.184Z,22.7
2018-05-31T02:31:57.112Z,22.7
2018-05-31T02:32:47.123Z,22.7
2018-05-31T02:33:37.190Z,22.7
2018-05-31T02:34:26.416Z,22.7
2018-05-31T02:35:17.408Z,22.7
2018-05-31T02:36:06.868Z,22.7
2018-05-31T02:36:57.195Z,22.7
2018-05-31T02:37:47.554Z,22.7
2018-05-31T02:38:36.442Z,22.8
2018-05-31T02:39:28.473Z,22.7
2018-05-31T02:40:17.131Z,22.7
2018-05-31T02:41:07.520Z,22.7
2018-05-31T02:41:57.818Z,22.8
2018-05-31T02:42:49.780Z,22.8
2018-05-31T02:43:37.377Z,22.8
2018-05-31T02:44:27.752Z,22.8
2018-05-31T02:45:17.777Z,22.7
2018-05-31T02:46:10.454Z,22.8
2018-05-31T02:46:57.902Z,22.8
2018-05-31T02:47:48.339Z,22.8
2018-05-31T02:48:38.072Z,22.8
2018-05-31T02:49:29.882Z,22.8
2018-05-31T02:50:18.503Z,22.7
2018-05-31T02:51:07.968Z,22.8
2018-05-31T02:51:58.333Z,22.8
2018-05-31T02:52:50.220Z,22.8
2018-05-31T02:53:38.452Z,22.8
2018-05-31T02:54:27.961Z,22.7
2018-05-31T02:55:18.888Z,22.8
2018-05-31T02:56:08.650Z,22.7
2018-05-31T02:56:59.036Z,22.7
2018-05-31T02:57:49.041Z,22.8
2018-05-31T02:58:39.104Z,22.7
2018-05-31T02:59:28.612Z,22.8
2018-05-31T03:00:19.297Z,22.7
2018-05-31T03:01:09.021Z,22.8
2018-05-31T03:01:59.071Z,22.7
2018-05-31T03:02:49.121Z,22.8
2018-05-31T03:03:39.461Z,22.8
2018-05-31T03:04:29.430Z,22.8
2018-05-31T03:05:19.987Z,22.8
2018-05-31T03:06:09.694Z,22.8
2018-05-31T03:06:59.535Z,22.8
2018-05-31T03:07:49.353Z,22.8
2018-05-31T03:08:40.605Z,22.8
2018-05-31T03:09:29.384Z,22.8
2018-05-31T03:10:19.452Z,22.8
2018-05-31T03:11:10.102Z,22.8
2018-05-31T03:12:02.432Z,22.8
2018-05-31T03:12:50.202Z,22.8
2018-05-31T03:13:39.991Z,22.8
2018-05-31T03:14:29.469Z,22.8
2018-05-31T03:15:22.201Z,22.8
2018-05-31T03:16:10.479Z,22.8
2018-05-31T03:16:59.676Z,22.8
2018-05-31T03:17:50.669Z,22.8
2018-05-31T03:18:42.669Z,22.8
2018-05-31T03:19:30.190Z,22.8
2018-05-31T03:20:20.776Z,22.8
2018-05-31T03:21:10.269Z,22.8
2018-05-31T03:22:00.368Z,22.8
2018-05-31T03:22:50.662Z,22.8
2018-05-31T03:23:40.723Z,22.8
2018-05-31T03:24:30.826Z,22.8
2018-05-31T03:25:20.648Z,22.8
2018-05-31T03:26:10.929Z,22.8
2018-05-31T03:27:00.684Z,22.8
2018-05-31T03:27:50.761Z,22.8
2018-05-31T03:28:41.109Z,22.8
2018-05-31T03:29:31.164Z,22.8
2018-05-31T03:30:21.267Z,22.8
2018-05-31T03:31:12.570Z,22.8
2018-05-31T03:32:01.370Z,22.7
2018-05-31T03:32:51.156Z,22.8
2018-05-31T03:33:40.899Z,22.7
2018-05-31T03:34:33.754Z,22.8
2018-05-31T03:35:21.713Z,22.8
2018-05-31T03:36:11.090Z,22.8
2018-05-31T03:37:02.035Z,22.8
2018-05-31T03:37:54.860Z,22.8
2018-05-31T03:38:42.149Z,22.8
2018-05-31T03:39:31.644Z,22.8
2018-05-31T03:40:21.967Z,22.8
2018-05-31T03:41:13.994Z,22.8
2018-05-31T03:42:02.426Z,22.8
2018-05-31T03:42:51.930Z,22.8
2018-05-31T03:43:41.364Z,22.8
2018-05-31T03:44:31.748Z,22.8
2018-05-31T03:45:21.910Z,22.8
2018-05-31T03:46:12.740Z,22.8
2018-05-31T03:47:02.781Z,22.8
2018-05-31T03:47:52.289Z,22.8
2018-05-31T03:48:42.353Z,22.8
2018-05-31T03:49:32.128Z,22.8
2018-05-31T03:50:22.476Z,22.8
2018-05-31T03:51:12.815Z,22.8
2018-05-31T03:52:02.627Z,22.8
2018-05-31T03:52:53.205Z,22.8
2018-05-31T03:53:42.985Z,22.8
2018-05-31T03:54:33.087Z,22.8
2018-05-31T03:55:22.559Z,22.8
2018-05-31T03:56:12.934Z,22.8
2018-05-31T03:57:04.503Z,22.8
2018-05-31T03:57:53.047Z,22.8
2018-05-31T03:58:43.663Z,22.8
2018-05-31T03:59:32.872Z,22.8
2018-05-31T04:00:26.043Z,22.8
2018-05-31T04:01:13.880Z,22.8
2018-05-31T04:02:03.965Z,22.8
2018-05-31T04:02:53.964Z,22.8
2018-05-31T04:03:46.589Z,22.8
2018-05-31T04:04:34.206Z,22.8
2018-05-31T04:05:23.885Z,22.8
2018-05-31T04:06:14.250Z,22.8
2018-05-31T04:07:07.038Z,22.8
2018-05-31T04:07:53.830Z,22.8
2018-05-31T04:08:44.164Z,22.8
2018-05-31T04:09:34.533Z,22.8
2018-05-31T04:10:24.320Z,22.8
2018-05-31T04:11:14.648Z,22.8
2018-05-31T04:12:04.097Z,22.8
2018-05-31T04:12:54.472Z,22.8
2018-05-31T04:13:44.553Z,22.8
2018-05-31T04:14:34.328Z,22.8
2018-05-31T04:15:24.995Z,22.8
2018-05-31T04:16:14.788Z,22.8
2018-05-31T04:17:04.496Z,22.8
2018-05-31T04:17:54.284Z,22.8
2018-05-31T04:18:45.169Z,22.8
2018-05-31T04:19:35.365Z,22.8
2018-05-31T04:20:24.830Z,22.8
2018-05-31T04:21:15.094Z,22.8
2018-05-31T04:22:05.159Z,22.8
2018-05-31T04:22:56.587Z,22.8
2018-05-31T04:23:45.300Z,22.8
2018-05-31T04:24:35.652Z,22.8
2018-05-31T04:25:25.402Z,22.8
2018-05-31T04:26:18.020Z,22.8
2018-05-31T04:27:05.282Z,22.8
2018-05-31T04:27:55.349Z,22.8
2018-05-31T04:28:45.960Z,22.8
2018-05-31T04:29:38.766Z,22.8
2018-05-31T04:30:25.808Z,22.8
2018-05-31T04:31:15.870Z,22.8
2018-05-31T04:32:05.668Z,22.8
2018-05-31T04:32:57.617Z,22.8
2018-05-31T04:33:47.023Z,22.8
2018-05-31T04:34:36.201Z,22.8
2018-05-31T04:35:26.476Z,22.8
2018-05-31T04:36:16.205Z,22.8
2018-05-31T04:37:05.764Z,22.8
2018-05-31T04:37:56.358Z,22.8
2018-05-31T04:38:46.732Z,22.8
2018-05-31T04:39:36.482Z,22.8
2018-05-31T04:40:26.264Z,22.8
2018-05-31T04:41:16.921Z,22.8
2018-05-31T04:42:07.012Z,22.8
2018-05-31T04:42:57.014Z,22.8
2018-05-31T04:43:47.082Z,22.8
2018-05-31T04:44:36.872Z,22.8
2018-05-31T04:45:28.277Z,22.8
2018-05-31T04:46:17.289Z,22.8
2018-05-31T04:47:07.074Z,22.8
2018-05-31T04:47:57.427Z,22.8
2018-05-31T04:48:49.408Z,22.8
2018-05-31T04:49:37.557Z,22.8
2018-05-31T04:50:27.671Z,22.8
2018-05-31T04:51:17.074Z,22.8
2018-05-31T04:52:10.472Z,22.8
2018-05-31T04:52:57.856Z,22.8
2018-05-31T04:53:47.277Z,22.8
2018-05-31T04:54:37.345Z,22.8
2018-05-31T04:55:29.931Z,22.8
2018-05-31T04:56:17.809Z,22.8
2018-05-31T04:57:07.560Z,22.8
2018-05-31T04:57:57.950Z,22.8
2018-05-31T04:58:48.914Z,22.9
2018-05-31T04:59:37.498Z,22.9
2018-05-31T05:00:28.456Z,22.8
2018-05-31T05:01:18.140Z,22.8
2018-05-31T05:02:08.551Z,22.8
2018-05-31T05:02:57.949Z,22.8
2018-05-31T05:03:47.829Z,22.8
2018-05-31T05:04:37.623Z,22.8
2018-05-31T05:05:28.537Z,22.8
2018-05-31T05:06:18.513Z,22.9
2018-05-31T05:07:08.601Z,22.9
2018-05-31T05:07:59.258Z,22.9
2018-05-31T05:08:47.945Z,22.9
2018-05-31T05:09:38.308Z,22.9
2018-05-31T05:10:28.058Z,22.9
2018-05-31T05:11:19.908Z,22.8
2018-05-31T05:12:08.511Z,22.9
2018-05-31T05:12:58.590Z,22.9
2018-05-31T05:13:48.523Z,22.9
2018-05-31T05:14:41.399Z,22.9
2018-05-31T05:15:29.234Z,22.9
2018-05-31T05:16:19.323Z,22.9
2018-05-31T05:17:09.085Z,22.9
2018-05-31T05:18:02.968Z,22.9
2018-05-31T05:18:49.795Z,22.9
2018-05-31T05:19:39.248Z,22.9
2018-05-31T05:20:29.622Z,22.9
2018-05-31T05:21:21.401Z,22.9
2018-05-31T05:22:09.457Z,22.9
2018-05-31T05:22:59.528Z,22.9
2018-05-31T05:23:49.563Z,22.9
2018-05-31T05:24:39.173Z,22.9
2018-05-31T05:25:29.530Z,22.9
2018-05-31T05:26:19.280Z,22.9
2018-05-31T05:27:10.449Z,26.6
2018-05-31T05:28:00.187Z,28
2018-05-31T05:28:50.276Z,30.9
2018-05-31T05:29:40.630Z,32.1
2018-05-31T05:30:30.367Z,32
2018-05-31T05:31:20.479Z,30.4
2018-05-31T05:32:10.216Z,28.5
2018-05-31T05:33:00.870Z,27.1
2018-05-31T05:33:51.189Z,26.4
2018-05-31T05:34:40.694Z,26.1
2018-05-31T05:35:30.444Z,25.9
2018-05-31T05:36:20.828Z,25.7
2018-05-31T05:37:12.529Z,25.6
2018-05-31T05:38:01.223Z,25.4
2018-05-31T05:38:51.283Z,25.4
2018-05-31T05:39:41.343Z,25.3
2018-05-31T05:40:34.626Z,25.3
2018-05-31T05:41:21.181Z,25.8
2018-05-31T05:42:11.044Z,29.6
2018-05-31T05:43:01.360Z,31.4
2018-05-31T05:43:53.425Z,33.3
2018-05-31T05:44:41.824Z,33.8
2018-05-31T05:45:31.592Z,33.8
2018-05-31T05:46:21.276Z,33.6
2018-05-31T05:47:11.638Z,33.6
2018-05-31T05:48:01.419Z,33.8
2018-05-31T05:48:51.776Z,34.1
2018-05-31T05:49:42.118Z,34.3
2018-05-31T05:50:31.336Z,34.4
2018-05-31T05:51:21.968Z,34.5
2018-05-31T05:52:12.306Z,34.6
2018-05-31T05:53:02.468Z,34.8
2018-05-31T05:53:52.247Z,34.9
2018-05-31T05:54:42.498Z,35.1
2018-05-31T05:55:32.077Z,35.2
2018-05-31T05:56:24.037Z,35.3
2018-05-31T05:57:12.405Z,35.4
2018-05-31T05:58:02.771Z,35.6
2018-05-31T05:58:52.818Z,35.7
2018-05-31T05:59:45.313Z,35.9
2018-05-31T06:00:32.447Z,36
2018-05-31T06:01:22.998Z,36.1
2018-05-31T06:02:12.795Z,36.3
2018-05-31T06:03:06.389Z,36.4
2018-05-31T06:03:53.191Z,36.6
2018-05-31T06:04:43.279Z,36.7
2018-05-31T06:05:33.050Z,36.8
2018-05-31T06:06:23.587Z,36.9
2018-05-31T06:07:12.872Z,37.1
2018-05-31T06:08:03.495Z,37.3
2018-05-31T06:08:53.115Z,37.4
2018-05-31T06:09:43.369Z,37.5
2018-05-31T06:10:33.767Z,37.7
2018-05-31T06:11:23.808Z,37.8
2018-05-31T06:12:12.967Z,37.9
2018-05-31T06:13:03.942Z,38.1
2018-05-31T06:13:53.705Z,38.2
2018-05-31T06:14:44.044Z,38.3
2018-05-31T06:15:35.785Z,38.5
2018-05-31T06:16:23.862Z,38.6
2018-05-31T06:17:13.652Z,38.8
2018-05-31T06:18:03.983Z,38.9
2018-05-31T06:18:56.143Z,39
2018-05-31T06:19:44.783Z,39.1
2018-05-31T06:20:34.188Z,39.3
2018-05-31T06:21:23.673Z,39.4
2018-05-31T06:22:16.255Z,39.6
2018-05-31T06:23:04.756Z,39.7
2018-05-31T06:23:54.157Z,39.8
2018-05-31T06:24:44.507Z,39.9
2018-05-31T06:25:37.785Z,40.1
2018-05-31T06:26:25.904Z,40.3
2018-05-31T06:27:14.704Z,40.4
2018-05-31T06:28:04.754Z,40.5
2018-05-31T06:28:55.318Z,40.6
2018-05-31T06:29:44.057Z,40.8
2018-05-31T06:30:34.975Z,40.9
2018-05-31T06:31:25.359Z,41.1
2018-05-31T06:32:15.401Z,41.2
2018-05-31T06:33:05.468Z,41.4
2018-05-31T06:33:55.505Z,41.5
2018-05-31T06:34:45.189Z,41.6
2018-05-31T06:35:35.566Z,41.8
2018-05-31T06:36:25.323Z,41.7
2018-05-31T06:37:16.421Z,41.8
2018-05-31T06:38:05.766Z,41.8
2018-05-31T06:38:55.798Z,41.9
2018-05-31T06:39:45.618Z,42.1
2018-05-31T06:40:35.923Z,42.2
2018-05-31T06:41:25.737Z,41.8
2018-05-31T06:42:15.788Z,41.7
2018-05-31T06:43:05.980Z,41.8
2018-05-31T06:43:55.428Z,41.9
2018-05-31T06:44:45.964Z,42.1
2018-05-31T06:45:36.285Z,42.3
2018-05-31T06:46:25.814Z,42.4
2018-05-31T06:47:15.955Z,42.6
2018-05-31T06:48:06.280Z,42.7
2018-05-31T06:48:56.324Z,42.9
2018-05-31T06:49:46.134Z,43
2018-05-31T06:50:35.953Z,43.2
2018-05-31T06:51:25.900Z,43.3
2018-05-31T06:52:16.518Z,43.5
2018-05-31T06:53:06.606Z,43.7
2018-05-31T06:53:56.707Z,43.8
2018-05-31T06:54:46.448Z,44
2018-05-31T06:55:36.538Z,44.1
2018-05-31T06:56:26.895Z,44.3
2018-05-31T06:57:16.907Z,44.5
2018-05-31T06:58:06.499Z,44.6
2018-05-31T06:58:57.048Z,44.8
2018-05-31T06:59:47.096Z,45
2018-05-31T07:00:37.214Z,45.1
2018-05-31T07:01:26.945Z,45.3
2018-05-31T07:02:16.764Z,45.4
2018-05-31T07:03:07.657Z,45.5
2018-05-31T07:03:57.704Z,45.4
2018-05-31T07:04:47.200Z,45.3
2018-05-31T07:05:37.863Z,45.2
2018-05-31T07:06:27.369Z,45.2
2018-05-31T07:07:17.697Z,45.3
2018-05-31T07:08:07.719Z,45
2018-05-31T07:08:57.549Z,44.6
2018-05-31T07:09:47.864Z,44.3
2018-05-31T07:10:37.670Z,44
2018-05-31T07:11:27.535Z,44.1
2018-05-31T07:12:18.356Z,44
2018-05-31T07:13:08.422Z,43.6
2018-05-31T07:13:58.200Z,43.2
2018-05-31T07:14:48.516Z,42.8
2018-05-31T07:15:38.348Z,42.6
2018-05-31T07:16:28.121Z,42.5
2018-05-31T07:17:18.483Z,42.4
2018-05-31T07:18:08.791Z,42.4
2018-05-31T07:18:58.851Z,42.4
2018-05-31T07:19:48.630Z,42.5
2018-05-31T07:20:38.767Z,42.6
2018-05-31T07:21:28.292Z,42.8
2018-05-31T07:22:19.195Z,42.9
2018-05-31T07:23:08.874Z,43.1
2018-05-31T07:23:58.520Z,43.3
2018-05-31T07:24:48.783Z,43.5
2018-05-31T07:25:38.877Z,43.7
2018-05-31T07:26:29.157Z,43.9
2018-05-31T07:27:19.855Z,44.1
2018-05-31T07:28:09.285Z,44.3
2018-05-31T07:28:59.647Z,44.5
2018-05-31T07:29:49.160Z,44.7
2018-05-31T07:30:39.603Z,44.9
2018-05-31T07:31:28.824Z,45
2018-05-31T07:32:19.328Z,45.3
2018-05-31T07:33:08.834Z,45.4
2018-05-31T07:34:00.042Z,45.6
2018-05-31T07:34:49.804Z,45.8
2018-05-31T07:35:39.901Z,45.9
2018-05-31T07:36:30.251Z,46.1
2018-05-31T07:37:19.707Z,46.3
2018-05-31T07:38:09.505Z,46.5
2018-05-31T07:39:00.140Z,46.6
2018-05-31T07:39:49.920Z,46.8
2018-05-31T07:40:40.017Z,47
2018-05-31T07:41:30.343Z,47.1
2018-05-31T07:42:20.406Z,47.3
2018-05-31T07:43:10.154Z,47.4
2018-05-31T07:44:00.472Z,47.6
2018-05-31T07:44:50.834Z,47.8
2018-05-31T07:45:40.909Z,47.9
2018-05-31T07:46:30.152Z,48
2018-05-31T07:47:20.738Z,48.2
2018-05-31T07:48:11.127Z,48.3
2018-05-31T07:49:01.207Z,48.4
2018-05-31T07:49:50.673Z,48.6
2018-05-31T07:50:41.063Z,48.8
2018-05-31T07:51:31.355Z,48.9
2018-05-31T07:52:21.433Z,49
2018-05-31T07:53:11.547Z,49.1
2018-05-31T07:54:01.336Z,49.3
2018-05-31T07:54:51.319Z,49.4
2018-05-31T07:55:41.102Z,49.5
2018-05-31T07:56:31.453Z,49.6
2018-05-31T07:57:21.830Z,49.8
2018-05-31T07:58:12.641Z,49.9
2018-05-31T07:59:01.358Z,50
2018-05-31T07:59:51.428Z,50.1
2018-05-31T08:00:41.594Z,50.3
2018-05-31T08:01:31.291Z,50.4
2018-05-31T08:02:21.954Z,50.5
2018-05-31T08:03:12.317Z,50.6
2018-05-31T08:04:02.054Z,50.8
2018-05-31T08:04:52.118Z,50.8
2018-05-31T08:05:42.059Z,50.9
2018-05-31T08:06:32.038Z,51.1
2018-05-31T08:07:22.584Z,51.3
2018-05-31T08:08:12.707Z,51.3
2018-05-31T08:09:02.178Z,51.4
2018-05-31T08:09:52.823Z,51.6
2018-05-31T08:10:42.385Z,51.7
2018-05-31T08:11:32.823Z,51.8
2018-05-31T08:13:12.826Z,52
2018-05-31T08:14:03.133Z,52.1
2018-05-31T08:14:53.179Z,52.3
2018-05-31T08:16:32.779Z,52.5
2018-05-31T08:17:23.156Z,52.6
2018-05-31T08:18:13.156Z,52.7
2018-05-31T08:19:02.941Z,52.8
2018-05-31T08:19:53.335Z,52.9
2018-05-31T08:20:43.804Z,53.1
2018-05-31T08:21:33.693Z,53.2
2018-05-31T08:22:23.467Z,53.3
2018-05-31T08:23:13.239Z,53.4
2018-05-31T08:24:03.315Z,53.5
2018-05-31T08:24:53.400Z,53.6
2018-05-31T08:25:43.183Z,53.8
2018-05-31T08:26:33.537Z,53.8
2018-05-31T08:27:23.840Z,53.9
2018-05-31T08:28:13.359Z,54.1
2018-05-31T08:29:04.013Z,54.2
2018-05-31T08:29:54.385Z,54.3
2018-05-31T08:30:44.392Z,54.4
2018-05-31T08:31:35.414Z,54.5
2018-05-31T08:32:24.256Z,54.6
2018-05-31T08:33:13.757Z,54.7
2018-05-31T08:34:04.654Z,54.8
2018-05-31T08:34:54.777Z,54.9
2018-05-31T08:35:44.801Z,55.1
2018-05-31T08:36:34.855Z,55.2
2018-05-31T08:37:24.871Z,55.3
2018-05-31T08:38:14.114Z,55.4
2018-05-31T08:39:04.473Z,55.4
2018-05-31T08:39:55.100Z,55.6
2018-05-31T08:40:45.156Z,55.7
2018-05-31T08:41:34.657Z,55.8
2018-05-31T08:42:25.310Z,55.9
2018-05-31T08:43:15.113Z,56
2018-05-31T08:44:05.576Z,56.1
2018-05-31T08:44:55.194Z,56.3
2018-05-31T08:45:45.303Z,56.3
2018-05-31T08:46:35.318Z,56.4
2018-05-31T08:47:25.103Z,56.6
2018-05-31T08:48:15.511Z,56.6
2018-05-31T08:49:04.798Z,56.8
2018-05-31T08:49:55.871Z,56.9
2018-05-31T08:50:45.909Z,56.9
2018-05-31T08:51:35.446Z,57.1
2018-05-31T08:52:25.751Z,57.1
2018-05-31T08:53:15.552Z,57.3
2018-05-31T08:54:06.238Z,57.3
2018-05-31T08:54:55.950Z,57.4
2018-05-31T08:55:45.064Z,57.6
2018-05-31T08:56:36.103Z,57.6
2018-05-31T08:58:16.492Z,57.8
2018-05-31T08:59:06.595Z,57.9
2018-05-31T08:59:56.398Z,58
2018-05-31T09:00:46.729Z,58.1
2018-05-31T09:01:36.473Z,58.2
2018-05-31T09:02:26.832Z,58.3
2018-05-31T09:03:16.619Z,58.4
2018-05-31T09:04:06.683Z,58.5
2018-05-31T09:05:47.132Z,58.8
2018-05-31T09:06:35.719Z,58.8
2018-05-31T09:07:27.220Z,58.9
2018-05-31T09:08:17.290Z,59
2018-05-31T09:09:07.386Z,59.1
2018-05-31T09:09:57.386Z,59.2
2018-05-31T09:10:47.481Z,59.3
2018-05-31T09:11:37.564Z,59.3
2018-05-31T09:12:27.352Z,59.4
2018-05-31T09:13:16.807Z,59.5
2018-05-31T09:14:07.451Z,59.6
2018-05-31T09:14:57.859Z,59.7
2018-05-31T09:15:47.304Z,59.8
2018-05-31T09:16:38.195Z,59.8
2018-05-31T09:17:27.997Z,59.9
2018-05-31T09:18:17.519Z,60
2018-05-31T09:19:07.835Z,60.1
2018-05-31T09:19:57.624Z,60.2
2018-05-31T09:20:47.656Z,60.3
2018-05-31T09:21:38.293Z,60.3
2018-05-31T09:22:28.073Z,60.4
2018-05-31T09:23:18.167Z,60.6
2018-05-31T09:24:08.210Z,60.6
2018-05-31T09:24:58.570Z,60.7
2018-05-31T09:25:48.032Z,60.8
2018-05-31T09:26:38.422Z,60.8
2018-05-31T09:27:28.204Z,60.9
2018-05-31T09:28:18.837Z,61
2018-05-31T09:29:08.627Z,61
2018-05-31T09:29:58.386Z,61.1
2018-05-31T09:30:48.994Z,61.2
2018-05-31T09:31:39.076Z,61.3
2018-05-31T09:32:28.570Z,61.4
2018-05-31T09:33:19.216Z,61.4
2018-05-31T09:34:09.002Z,61.4
2018-05-31T09:34:58.958Z,61.5
2018-05-31T09:35:49.468Z,61.6
2018-05-31T09:36:39.239Z,61.6
2018-05-31T09:37:29.245Z,61.6
2018-05-31T09:38:19.272Z,61.7
2018-05-31T09:39:09.378Z,61.8
2018-05-31T09:39:59.701Z,61.8
2018-05-31T09:40:49.821Z,61.8
2018-05-31T09:41:39.252Z,61.8
2018-05-31T09:42:29.066Z,61.9
2018-05-31T09:43:19.697Z,61.9
2018-05-31T09:44:10.034Z,61.9
2018-05-31T09:45:00.152Z,61.9
2018-05-31T09:45:50.168Z,61.9
2018-05-31T09:46:40.519Z,62
2018-05-31T09:47:30.335Z,62.1
2018-05-31T09:48:20.115Z,62.1
2018-05-31T09:49:09.316Z,62.1
2018-05-31T09:50:00.491Z,62.1
2018-05-31T09:50:50.579Z,62.2
2018-05-31T09:51:40.652Z,62.2
2018-05-31T09:52:29.877Z,62.2
2018-05-31T09:53:20.222Z,62.2
2018-05-31T09:54:10.564Z,62.3
2018-05-31T09:55:00.960Z,62.4
2018-05-31T09:55:50.912Z,62.4
2018-05-31T09:56:40.464Z,62.4
2018-05-31T09:57:30.818Z,62.5
2018-05-31T09:58:21.061Z,62.7
2018-05-31T09:59:10.369Z,62.7
2018-05-31T10:00:00.712Z,62.8
2018-05-31T10:00:50.489Z,62.9
2018-05-31T10:01:41.164Z,62.9
2018-05-31T10:02:31.170Z,63
2018-05-31T10:03:21.250Z,63.1
2018-05-31T10:04:11.045Z,63.1
2018-05-31T10:05:01.115Z,63.1
2018-05-31T10:05:51.448Z,63.1
2018-05-31T10:06:41.771Z,63.2
2018-05-31T10:07:31.590Z,63.3
2018-05-31T10:08:21.895Z,63.4
2018-05-31T10:09:11.737Z,63.4
2018-05-31T10:10:01.485Z,63.5
2018-05-31T10:10:52.111Z,63.6
2018-05-31T10:11:42.198Z,63.5
2018-05-31T10:12:31.963Z,63.5
2018-05-31T10:13:22.282Z,63.5
2018-05-31T10:14:11.806Z,63.6
2018-05-31T10:15:01.949Z,63.7
2018-05-31T10:15:52.228Z,63.6
2018-05-31T10:16:42.319Z,63.6
2018-05-31T10:17:32.640Z,63.8
2018-05-31T10:18:22.361Z,63.8
2018-05-31T10:19:12.172Z,63.9
2018-05-31T10:20:02.522Z,63.9
2018-05-31T10:20:52.607Z,63.9
2018-05-31T10:21:42.655Z,64.1
2018-05-31T10:22:32.550Z,64.1
2018-05-31T10:23:23.069Z,64.2
2018-05-31T10:24:12.860Z,64.3
2018-05-31T10:25:02.623Z,64.4
2018-05-31T10:25:53.324Z,64.4
2018-05-31T10:26:43.325Z,64.4
2018-05-31T10:27:33.130Z,64.5
2018-05-31T10:28:23.449Z,64.6
2018-05-31T10:29:12.372Z,64.6
2018-05-31T10:30:03.312Z,64.7
2018-05-31T10:30:53.651Z,64.8
2018-05-31T10:31:43.423Z,64.8
2018-05-31T10:32:33.526Z,64.9
2018-05-31T10:33:23.551Z,64.9
2018-05-31T10:34:13.616Z,65
2018-05-31T10:35:03.665Z,65
2018-05-31T10:35:53.798Z,65.1
2018-05-31T10:36:44.104Z,65.1
2018-05-31T10:37:33.329Z,65.2
2018-05-31T10:38:23.449Z,65.3
2018-05-31T10:39:14.001Z,65.3
2018-05-31T10:40:04.126Z,65.3
2018-05-31T10:40:54.431Z,65.4
2018-05-31T10:41:44.239Z,65.5
2018-05-31T10:42:33.730Z,65.5
2018-05-31T10:43:24.338Z,65.5
2018-05-31T10:44:14.434Z,65.6
2018-05-31T10:45:04.794Z,65.6
2018-05-31T10:45:54.256Z,65.7
2018-05-31T10:46:44.905Z,65.7
2018-05-31T10:47:34.989Z,65.8
2018-05-31T10:48:24.436Z,65.8
2018-05-31T10:49:14.193Z,65.9
2018-05-31T10:50:05.193Z,65.9
2018-05-31T10:50:54.903Z,65.9
2018-05-31T10:51:45.249Z,66
2018-05-31T10:52:34.757Z,66.1
2018-05-31T10:53:24.545Z,66.1
2018-05-31T10:54:15.192Z,66.1
2018-05-31T10:55:05.521Z,66.1
2018-05-31T10:55:55.318Z,66.2
2018-05-31T10:56:45.066Z,66.3
2018-05-31T10:57:35.702Z,66.3
2018-05-31T10:58:25.210Z,66.3
2018-05-31T10:59:15.511Z,66.4
2018-05-31T11:00:05.656Z,66.4
2018-05-31T11:00:55.383Z,66.4
2018-05-31T11:01:45.710Z,66.5
2018-05-31T11:02:36.070Z,66.6
2018-05-31T11:03:25.890Z,66.6
2018-05-31T11:04:16.205Z,66.7
2018-05-31T11:05:06.280Z,66.7
2018-05-31T11:05:56.119Z,66.8
2018-05-31T11:06:45.845Z,66.8
2018-05-31T11:07:36.200Z,66.9
2018-05-31T11:08:26.263Z,66.9
2018-05-31T11:09:16.303Z,66.9
2018-05-31T11:10:06.711Z,67
2018-05-31T11:10:56.689Z,67.1